Time;durP1;ratioP1;P1;durP2;ratioP2;P2;SDS_P1;SDS_P2;PMS_P1;PMS_P2;Temp;Humidity;BMP_temperature;BMP_pressure;BME280_temperature;BME280_humidity;BME280_pressure;Samples;Min_cycle;Max_cycle;Signal;HPM_P1;HPM_P2
2023/02/10 00:00:41;;;;;;;22.27;11.90;;;0.00;99.90;;;;;;4898905;29;20052;-80
2023/02/10 00:03:07;;;;;;;19.48;10.80;;;0.00;99.90;;;;;;4899837;29;20052;-80
2023/02/10 00:05:34;;;;;;;16.27;11.18;;;0.00;99.90;;;;;;4915378;29;20045;-79
2023/02/10 00:08:01;;;;;;;20.83;11.93;;;0.00;99.90;;;;;;4899115;29;20040;-79
2023/02/10 00:10:27;;;;;;;23.13;12.80;;;-0.10;99.90;;;;;;4900397;29;20040;-79
2023/02/10 00:12:54;;;;;;;25.35;12.27;;;-0.10;99.90;;;;;;4884124;29;20359;-80
2023/02/10 00:15:22;;;;;;;19.90;11.35;;;-0.10;99.90;;;;;;4880295;29;20056;-79
2023/02/10 00:17:48;;;;;;;22.73;11.77;;;-0.20;99.90;;;;;;4881810;29;20145;-80
2023/02/10 00:20:15;;;;;;;21.15;11.77;;;-0.20;99.90;;;;;;4881750;29;20049;-80
2023/02/10 00:22:41;;;;;;;21.63;11.90;;;-0.20;99.90;;;;;;4879890;29;20049;-78
2023/02/10 00:25:10;;;;;;;22.77;11.27;;;-0.20;99.90;;;;;;4881647;29;20048;-80
2023/02/10 00:27:37;;;;;;;20.35;12.32;;;-0.30;99.90;;;;;;4881025;29;20418;-80
2023/02/10 00:30:03;;;;;;;25.83;13.07;;;-0.30;99.90;;;;;;4881779;29;20044;-79
2023/02/10 00:32:31;;;;;;;20.27;11.45;;;-0.40;99.90;;;;;;4896102;29;20041;-79
2023/02/10 00:34:59;;;;;;;25.40;12.02;;;-0.40;99.90;;;;;;4895104;29;20067;-79
2023/02/10 00:37:26;;;;;;;19.33;11.85;;;-0.40;99.90;;;;;;4896035;29;20053;-79
2023/02/10 00:39:55;;;;;;;22.90;11.55;;;-0.30;99.90;;;;;;4881439;29;20045;-80
2023/02/10 00:42:21;;;;;;;23.52;12.68;;;-0.40;99.90;;;;;;4879413;29;20037;-78
2023/02/10 00:47:34;;;;;;;21.70;11.77;;;-0.40;99.90;;;;;;4894238;29;20388;-80
2023/02/10 00:50:01;;;;;;;19.85;11.40;;;-0.40;99.90;;;;;;4879878;29;20551;-79
2023/02/10 00:52:28;;;;;;;18.38;10.30;;;-0.50;99.90;;;;;;4879331;29;20045;-80
2023/02/10 00:54:55;;;;;;;21.85;11.35;;;-0.50;99.90;;;;;;4895192;29;20045;-80
2023/02/10 00:57:22;;;;;;;23.40;11.43;;;-0.50;99.90;;;;;;4880352;29;20061;-79
2023/02/10 00:59:49;;;;;;;22.73;11.88;;;-0.50;99.90;;;;;;4880852;29;20457;-79
2023/02/10 01:02:15;;;;;;;20.98;11.38;;;-0.50;99.90;;;;;;4879393;29;20080;-79
2023/02/10 01:07:29;;;;;;;21.70;11.95;;;-0.50;99.90;;;;;;4880160;29;20125;-80
2023/02/10 01:09:56;;;;;;;20.95;11.15;;;-0.50;99.90;;;;;;4895525;29;20377;-80
2023/02/10 01:12:23;;;;;;;25.98;12.20;;;-0.60;99.90;;;;;;4895410;29;20064;-78
2023/02/10 01:17:19;;;;;;;21.00;10.65;;;-0.70;99.90;;;;;;4895501;29;20045;-78
2023/02/10 01:19:48;;;;;;;17.48;10.82;;;-0.70;99.90;;;;;;4895311;29;20045;-80
2023/02/10 01:22:15;;;;;;;23.48;11.02;;;-0.60;99.90;;;;;;4879900;29;20040;-79
2023/02/10 01:27:29;;;;;;;21.95;9.93;;;-0.70;99.90;;;;;;4880175;29;20112;-79
2023/02/10 01:29:56;;;;;;;19.98;11.68;;;-0.70;99.90;;;;;;4895373;29;20049;-79
2023/02/10 01:32:23;;;;;;;19.17;11.63;;;-0.70;99.90;;;;;;4880546;29;20132;-80
2023/02/10 01:37:20;;;;;;;;;;;-0.70;99.90;;;;;;4881477;29;20045;-79
2023/02/10 01:39:48;;;;;;;14.35;9.18;;;-0.70;99.90;;;;;;4880712;29;19924;-79
2023/02/10 01:42:15;;;;;;;19.27;9.73;;;-0.70;99.90;;;;;;4879715;29;20049;-78
2023/02/10 01:44:45;;;;;;;14.85;9.20;;;-0.70;99.90;;;;;;4879693;29;20053;-79
2023/02/10 01:47:12;;;;;;;19.02;9.60;;;-0.80;99.90;;;;;;4894479;29;20101;-79
2023/02/10 01:49:40;;;;;;;18.83;10.15;;;-0.80;99.90;;;;;;4896071;29;20325;-79
2023/02/10 01:52:06;;;;;;;20.48;10.95;;;-0.90;99.90;;;;;;4895034;29;20051;-79
2023/02/10 01:54:34;;;;;;;21.40;9.73;;;-0.90;99.90;;;;;;4878826;29;20053;-81
2023/02/10 01:57:01;;;;;;;18.85;10.57;;;-0.90;99.90;;;;;;4895373;29;20148;-81
2023/02/10 01:59:27;;;;;;;17.48;8.82;;;-0.80;99.90;;;;;;4895072;29;20056;-80
2023/02/10 02:01:54;;;;;;;13.80;9.45;;;-0.80;99.90;;;;;;4894179;29;20053;-78
2023/02/10 02:04:24;;;;;;;14.68;9.07;;;-0.80;99.90;;;;;;4895105;29;20041;-79
2023/02/10 02:06:51;;;;;;;17.38;10.07;;;-0.80;99.90;;;;;;4880509;29;20072;-79
2023/02/10 02:09:18;;;;;;;17.42;9.77;;;-0.80;99.90;;;;;;4878731;29;20045;-79
2023/02/10 02:11:46;;;;;;;14.20;10.55;;;-0.90;99.90;;;;;;4896645;29;20105;-79
2023/02/10 02:14:13;;;;;;;21.40;10.77;;;-0.90;99.90;;;;;;4898054;29;20061;-79
2023/02/10 02:16:41;;;;;;;18.15;9.02;;;-0.90;99.90;;;;;;4883909;29;20055;-78
2023/02/10 02:19:07;;;;;;;15.75;9.32;;;-0.90;99.90;;;;;;4882810;29;20448;-79
2023/02/10 02:21:34;;;;;;;16.90;9.15;;;-0.90;99.90;;;;;;4882836;29;20051;-79
2023/02/10 02:24:02;;;;;;;15.93;10.18;;;-1.10;99.90;;;;;;4898472;29;20041;-79
2023/02/10 02:26:29;;;;;;;17.38;8.98;;;-1.10;99.90;;;;;;4898400;29;20059;-79
2023/02/10 02:28:56;;;;;;;14.52;9.07;;;-1.10;99.90;;;;;;4897635;29;20049;-80
2023/02/10 02:31:23;;;;;;;17.45;10.50;;;-1.10;99.90;;;;;;4882483;29;20059;-81
2023/02/10 02:33:49;;;;;;;20.23;9.48;;;-1.10;99.90;;;;;;4898198;29;20468;-80
2023/02/10 02:36:17;;;;;;;15.52;9.40;;;-1.10;99.90;;;;;;4897922;29;20131;-78
2023/02/10 02:38:44;;;;;;;22.38;9.68;;;-1.10;99.90;;;;;;4882585;29;20056;-79
2023/02/10 02:41:10;;;;;;;14.38;9.25;;;-1.10;99.90;;;;;;4897095;29;20071;-79
2023/02/10 02:43:38;;;;;;;18.95;9.35;;;-1.10;99.90;;;;;;4882443;29;20140;-79
2023/02/10 02:46:07;;;;;;;13.30;9.40;;;-1.10;99.90;;;;;;4882352;29;20045;-79
2023/02/10 02:48:34;;;;;;;14.23;9.43;;;-1.10;99.90;;;;;;4897297;29;20069;-80
2023/02/10 02:51:00;;;;;;;17.27;10.82;;;-1.10;99.90;;;;;;4897671;29;20361;-79
2023/02/10 02:53:27;;;;;;;14.85;9.00;;;-1.20;99.90;;;;;;4897792;29;20045;-79
2023/02/10 02:55:54;;;;;;;14.57;10.20;;;-1.20;99.90;;;;;;4882152;29;20081;-79
2023/02/10 02:58:20;;;;;;;17.42;11.05;;;-1.20;99.90;;;;;;4897861;29;20448;-79
2023/02/10 03:00:47;;;;;;;18.48;11.77;;;-1.10;99.90;;;;;;4896720;29;20059;-79
2023/02/10 03:03:14;;;;;;;13.48;9.70;;;-1.00;99.90;;;;;;4897873;29;20045;-79
2023/02/10 03:05:40;;;;;;;20.40;10.52;;;-1.00;99.90;;;;;;4897515;29;20152;-79
2023/02/10 03:08:07;;;;;;;15.88;9.77;;;-0.90;99.90;;;;;;4896881;29;20051;-78
2023/02/10 03:10:34;;;;;;;18.70;9.35;;;-1.00;99.90;;;;;;4882686;29;20376;-79
2023/02/10 03:13:00;;;;;;;18.73;9.90;;;-1.00;99.90;;;;;;4897430;29;20048;-79
2023/02/10 03:18:13;;;;;;;12.82;8.15;;;-1.10;99.90;;;;;;4897266;29;20092;-78
2023/02/10 03:20:40;;;;;;;17.00;8.90;;;-1.10;99.90;;;;;;4896847;29;20052;-79
2023/02/10 03:23:07;;;;;;;13.98;9.48;;;-1.20;99.90;;;;;;4882359;29;20495;-79
2023/02/10 03:25:34;;;;;;;14.52;8.50;;;-1.20;99.90;;;;;;4897313;29;20089;-79
2023/02/10 03:28:01;;;;;;;14.73;9.00;;;-1.30;99.90;;;;;;4896353;29;20057;-80
2023/02/10 03:30:28;;;;;;;21.88;10.85;;;-1.30;99.90;;;;;;4897353;29;20418;-79
2023/02/10 03:32:55;;;;;;;13.98;7.57;;;-1.30;99.90;;;;;;4897204;29;20056;-79
2023/02/10 03:35:21;;;;;;;20.08;9.77;;;-1.30;99.90;;;;;;4881735;29;20049;-79
2023/02/10 03:37:48;;;;;;;15.38;9.70;;;-1.30;99.90;;;;;;4897098;29;20045;-79
2023/02/10 03:40:15;;;;;;;16.15;9.25;;;-1.30;99.90;;;;;;4882207;29;20078;-79
2023/02/10 03:42:41;;;;;;;12.02;8.93;;;-1.30;99.90;;;;;;4881545;29;20041;-78
2023/02/10 03:47:55;;;;;;;18.17;9.77;;;-1.40;99.90;;;;;;4881520;29;20068;-79
2023/02/10 03:50:22;;;;;;;23.60;10.63;;;-1.40;99.90;;;;;;4882250;29;20160;-78
2023/02/10 03:52:49;;;;;;;18.00;9.98;;;-1.30;99.90;;;;;;4882109;29;20048;-79
2023/02/10 03:55:19;;;;;;;16.15;10.00;;;-1.30;99.90;;;;;;4881400;29;20048;-80
2023/02/10 03:57:45;;;;;;;14.30;9.90;;;-1.30;99.90;;;;;;4882065;29;20055;-80
2023/02/10 04:00:12;;;;;;;19.90;11.02;;;-1.40;99.90;;;;;;4896492;29;20494;-78
2023/02/10 04:02:38;;;;;;;12.52;9.45;;;-1.40;99.90;;;;;;4881498;29;20057;-79
2023/02/10 04:07:37;;;;;;;17.20;10.60;;;-1.40;99.90;;;;;;4881310;29;20037;-80
2023/02/10 04:10:03;;;;;;;14.60;9.38;;;-1.40;99.90;;;;;;4896218;29;20059;-79
2023/02/10 04:12:30;;;;;;;18.75;10.52;;;-1.40;99.90;;;;;;4896574;29;20037;-78
2023/02/10 04:17:42;;;;;;;16.38;10.35;;;-1.40;99.90;;;;;;4896359;29;20057;-78
2023/02/10 04:20:09;;;;;;;16.70;9.32;;;-1.40;99.90;;;;;;4881776;29;20437;-79
2023/02/10 04:22:35;;;;;;;18.20;10.25;;;-1.40;99.90;;;;;;4895366;29;20056;-79
2023/02/10 04:25:03;;;;;;;17.60;9.48;;;-1.40;99.90;;;;;;4896283;29;20425;-80
2023/02/10 04:27:30;;;;;;;16.05;9.45;;;-1.50;99.90;;;;;;4895375;29;20148;-80
2023/02/10 04:29:56;;;;;;;19.08;10.82;;;-1.40;99.90;;;;;;4881534;29;20417;-80
2023/02/10 04:32:23;;;;;;;15.02;9.57;;;-1.50;99.90;;;;;;4881523;29;20400;-78
2023/02/10 04:34:50;;;;;;;14.75;9.02;;;-1.50;99.90;;;;;;4894657;29;20037;-78
2023/02/10 04:37:16;;;;;;;16.02;9.70;;;-1.50;99.90;;;;;;4880283;29;20064;-79
2023/02/10 04:39:43;;;;;;;15.05;9.13;;;-1.50;99.90;;;;;;4881026;29;20040;-79
2023/02/10 04:42:10;;;;;;;16.75;9.77;;;-1.50;99.90;;;;;;4895046;29;20060;-79
2023/02/10 04:44:36;;;;;;;18.77;10.93;;;-1.50;99.90;;;;;;4881345;29;20053;-78
2023/02/10 04:47:03;;;;;;;17.17;9.85;;;-1.50;99.90;;;;;;4896206;29;20133;-79
2023/02/10 04:49:30;;;;;;;16.83;10.45;;;-1.40;99.90;;;;;;4895065;29;20041;-79
2023/02/10 04:51:56;;;;;;;13.68;9.02;;;-1.40;99.90;;;;;;4880042;29;20051;-80
2023/02/10 04:54:23;;;;;;;14.40;10.63;;;-1.40;99.90;;;;;;4879330;29;20176;-80
2023/02/10 04:56:49;;;;;;;12.40;9.40;;;-1.40;99.90;;;;;;4896087;29;20053;-79
2023/02/10 04:59:16;;;;;;;17.20;8.95;;;-1.50;99.90;;;;;;4881071;29;20049;-79
2023/02/10 05:01:43;;;;;;;17.70;10.32;;;-1.50;99.90;;;;;;4894649;29;20061;-79
2023/02/10 05:04:09;;;;;;;16.65;10.27;;;-1.50;99.90;;;;;;4880966;29;20121;-79
2023/02/10 05:06:38;;;;;;;17.30;10.38;;;-1.50;99.90;;;;;;4895747;29;20052;-80
2023/02/10 05:09:05;;;;;;;19.42;10.55;;;-1.40;99.90;;;;;;4880301;29;20068;-78
2023/02/10 05:11:32;;;;;;;14.85;10.15;;;-1.40;99.90;;;;;;4895300;29;20101;-80
2023/02/10 05:13:58;;;;;;;13.75;10.32;;;-1.40;99.90;;;;;;4880079;29;20041;-79
2023/02/10 05:16:25;;;;;;;14.85;8.48;;;-1.40;99.90;;;;;;4880838;29;20052;-80
2023/02/10 05:18:52;;;;;;;13.85;10.00;;;-1.50;99.90;;;;;;4880895;29;20136;-79
2023/02/10 05:21:19;;;;;;;13.38;8.52;;;-1.60;99.90;;;;;;4894460;29;20037;-80
2023/02/10 05:23:46;;;;;;;11.80;8.65;;;-1.60;99.90;;;;;;4895353;29;20442;-78
2023/02/10 05:26:14;;;;;;;10.95;9.30;;;-1.60;99.90;;;;;;4880988;29;20051;-78
2023/02/10 05:28:41;;;;;;;12.95;8.57;;;-1.60;99.90;;;;;;4894610;29;20037;-80
2023/02/10 05:31:08;;;;;;;14.77;9.45;;;-1.60;99.90;;;;;;4880621;29;20468;-78
2023/02/10 05:33:35;;;;;;;13.93;8.38;;;-1.60;99.90;;;;;;4880926;29;20144;-80
2023/02/10 05:41:33;;;;;;;18.90;9.00;;;-1.40;99.90;;;;;;4879773;29;20140;-78
2023/02/10 05:44:01;;;;;;;15.55;8.38;;;-1.40;99.90;;;;;;4879610;29;20071;-79
2023/02/10 05:46:28;;;;;;;13.73;9.05;;;-1.40;99.90;;;;;;4897899;29;20132;-80
2023/02/10 05:48:55;;;;;;;12.90;9.40;;;-1.40;99.90;;;;;;4883693;29;20064;-79
2023/02/10 05:51:21;;;;;;;22.10;10.15;;;-1.40;99.90;;;;;;4898831;29;20072;-78
2023/02/10 05:53:48;;;;;;;21.20;11.10;;;-1.40;99.90;;;;;;4884252;29;20044;-79
2023/02/10 05:56:16;;;;;;;14.23;8.63;;;-1.40;99.90;;;;;;4898653;29;20071;-79
2023/02/10 05:58:42;;;;;;;16.23;10.70;;;-1.30;99.90;;;;;;4884566;29;20045;-80
2023/02/10 06:01:09;;;;;;;16.65;9.90;;;-1.30;99.90;;;;;;4897849;29;20060;-79
2023/02/10 06:03:36;;;;;;;18.38;10.00;;;-1.30;99.90;;;;;;4898765;29;20353;-80
2023/02/10 06:06:04;;;;;;;17.88;9.52;;;-1.30;99.90;;;;;;4884176;29;20055;-80
2023/02/10 06:08:31;;;;;;;13.30;9.97;;;-1.40;99.90;;;;;;4897982;29;20461;-78
2023/02/10 06:10:58;;;;;;;12.93;8.90;;;-1.50;99.90;;;;;;4898522;29;20053;-79
2023/02/10 06:13:25;;;;;;;13.20;8.80;;;-1.50;99.90;;;;;;4884045;29;20357;-79
2023/02/10 06:18:21;;;;;;;18.55;11.30;;;-1.50;99.90;;;;;;4883677;29;20059;-79
2023/02/10 06:20:50;;;;;;;18.42;11.20;;;-1.50;99.90;;;;;;4897493;29;20425;-80
2023/02/10 06:23:17;;;;;;;19.70;10.57;;;-1.50;99.90;;;;;;4898291;29;20508;-79
2023/02/10 06:25:45;;;;;;;18.15;10.48;;;-1.60;99.90;;;;;;4898551;29;20057;-78
2023/02/10 06:28:12;;;;;;;16.23;9.32;;;-1.70;99.90;;;;;;4897509;29;20038;-78
2023/02/10 06:30:39;;;;;;;16.42;10.25;;;-1.60;99.90;;;;;;4898628;29;20421;-78
2023/02/10 06:33:05;;;;;;;22.73;10.60;;;-1.60;99.90;;;;;;4883791;29;20112;-78
2023/02/10 06:35:34;;;;;;;18.35;12.60;;;-1.70;99.90;;;;;;4882829;29;20059;-78
2023/02/10 06:38:01;;;;;;;13.93;9.20;;;-1.70;99.90;;;;;;4898653;29;20116;-78
2023/02/10 06:40:28;;;;;;;15.70;9.52;;;-1.70;99.90;;;;;;4882489;29;20109;-79
2023/02/10 06:42:54;;;;;;;16.27;9.75;;;-1.70;99.90;;;;;;4882666;29;20055;-78
2023/02/10 06:45:22;;;;;;;20.65;12.32;;;-1.70;99.90;;;;;;4898205;29;20373;-79
2023/02/10 06:47:49;;;;;;;16.63;10.40;;;-1.70;99.90;;;;;;4882696;29;20037;-79
2023/02/10 06:50:17;;;;;;;15.50;10.15;;;-1.70;99.90;;;;;;4883201;29;20045;-78
2023/02/10 06:52:44;;;;;;;19.83;11.27;;;-1.70;99.90;;;;;;4882474;29;20041;-77
2023/02/10 06:55:10;;;;;;;15.10;10.55;;;-1.70;99.90;;;;;;4897270;29;20045;-79
2023/02/10 06:57:37;;;;;;;16.95;10.18;;;-1.60;99.90;;;;;;4881663;29;20049;-78
2023/02/10 07:00:04;;;;;;;18.02;10.07;;;-1.60;99.90;;;;;;4882079;29;20084;-79
2023/02/10 07:02:30;;;;;;;17.90;10.63;;;-1.60;99.90;;;;;;4882347;29;20053;-79
2023/02/10 07:04:58;;;;;;;19.52;10.40;;;-1.50;99.90;;;;;;4897747;29;20491;-78
2023/02/10 07:07:25;;;;;;;15.38;9.50;;;-1.40;99.90;;;;;;4897215;29;20069;-79
2023/02/10 07:09:53;;;;;;;14.77;10.57;;;-1.40;99.90;;;;;;4897671;29;20056;-79
2023/02/10 07:12:19;;;;;;;14.18;8.95;;;-1.40;99.90;;;;;;4882121;29;20072;-77
2023/02/10 07:14:46;;;;;;;15.18;9.50;;;-1.40;99.90;;;;;;4896594;29;20040;-79
2023/02/10 07:17:13;;;;;;;18.30;8.93;;;-1.30;99.90;;;;;;4897725;29;20056;-79
2023/02/10 07:19:39;;;;;;;16.90;10.23;;;-1.30;99.90;;;;;;4896970;29;20069;-80
2023/02/10 07:22:06;;;;;;;15.23;9.63;;;-1.40;99.90;;;;;;4881585;29;20125;-80
2023/02/10 07:24:33;;;;;;;15.35;9.35;;;-1.30;99.90;;;;;;4882749;29;20117;-80
2023/02/10 07:26:59;;;;;;;15.57;10.35;;;-1.20;99.90;;;;;;4897329;29;20056;-79
2023/02/10 07:29:26;;;;;;;15.88;10.60;;;-1.30;99.90;;;;;;4881235;29;20056;-79
2023/02/10 07:31:53;;;;;;;15.48;10.60;;;-1.20;99.90;;;;;;4897258;29;20041;-79
2023/02/10 07:34:20;;;;;;;13.18;9.95;;;-1.20;99.90;;;;;;4880609;29;20079;-79
2023/02/10 07:36:53;;;;;;;14.65;10.10;;;-1.10;99.90;;;;;;4897252;29;20041;-79
2023/02/10 07:39:20;;;;;;;15.73;10.80;;;-1.00;99.90;;;;;;4897232;29;20045;-79
2023/02/10 07:41:46;;;;;;;16.85;10.88;;;-1.00;99.90;;;;;;4895733;29;20074;-79
2023/02/10 07:44:13;;;;;;;16.90;11.73;;;-0.90;99.90;;;;;;4896915;29;20059;-80
2023/02/10 07:46:39;;;;;;;16.08;10.85;;;-0.80;99.90;;;;;;4896838;29;20045;-78
2023/02/10 07:49:06;;;;;;;16.55;10.57;;;-0.80;99.90;;;;;;4880273;29;20045;-79
2023/02/10 07:51:33;;;;;;;15.75;11.23;;;-0.70;99.90;;;;;;4881643;29;20074;-80
2023/02/10 07:53:59;;;;;;;15.20;10.85;;;-0.70;99.90;;;;;;4881230;29;20045;-79
2023/02/10 07:56:26;;;;;;;16.55;10.38;;;-0.70;99.90;;;;;;4881102;29;20040;-80
2023/02/10 07:58:53;;;;;;;19.55;11.15;;;-0.60;99.90;;;;;;4881280;29;20060;-79
2023/02/10 08:01:19;;;;;;;14.70;9.98;;;-0.60;99.90;;;;;;4879763;29;20699;-78
2023/02/10 08:03:46;;;;;;;17.73;11.85;;;-0.60;99.90;;;;;;4896725;29;20045;-79
2023/02/10 08:06:12;;;;;;;15.20;10.65;;;-0.60;99.90;;;;;;4882047;29;20060;-79
2023/02/10 08:08:39;;;;;;;15.93;10.70;;;-0.50;99.90;;;;;;4879971;29;20113;-78
2023/02/10 08:11:06;;;;;;;15.40;10.02;;;-0.50;99.90;;;;;;4881434;29;20123;-78
2023/02/10 08:13:32;;;;;;;16.35;11.55;;;-0.40;99.90;;;;;;4896821;29;20063;-79
2023/02/10 08:18:45;;;;;;;15.75;10.88;;;-0.40;99.90;;;;;;4899082;29;20169;-81
2023/02/10 08:21:11;;;;;;;20.65;12.80;;;-0.30;99.90;;;;;;4889536;29;20036;-80
2023/02/10 08:23:38;;;;;;;25.00;12.55;;;-0.30;99.90;;;;;;4900035;29;20036;-78
2023/02/10 08:28:54;;;;;;;20.85;11.45;;;0.00;99.90;;;;;;4870445;29;20435;-77
2023/02/10 08:31:20;;;;;;;19.20;11.85;;;0.10;99.90;;;;;;4882404;29;20037;-78
2023/02/10 08:33:47;;;;;;;20.30;13.38;;;0.20;99.90;;;;;;4891047;29;20072;-78
2023/02/10 08:36:18;;;;;;;22.23;12.65;;;0.30;99.90;;;;;;4881203;29;20373;-78
2023/02/10 08:39:31;;;;;;;17.67;12.90;;;0.60;99.90;;;;;;4858853;29;20060;-79
2023/02/10 08:41:57;;;;;;;20.30;13.32;;;0.80;99.90;;;;;;4880231;29;20059;-78
2023/02/10 08:44:25;;;;;;;27.80;15.02;;;1.00;99.90;;;;;;4895900;29;20037;-77
2023/02/10 08:46:52;;;;;;;20.83;14.93;;;1.20;99.90;;;;;;4895644;29;20041;-76
2023/02/10 08:49:19;;;;;;;25.27;16.13;;;1.40;99.90;;;;;;4881981;29;20785;-76
2023/02/10 08:51:46;;;;;;;25.67;16.13;;;1.60;99.90;;;;;;4895923;29;20067;-76
2023/02/10 08:54:12;;;;;;;25.65;17.52;;;1.80;99.90;;;;;;4880372;29;20049;-77
2023/02/10 08:56:39;;;;;;;28.83;18.30;;;2.00;99.90;;;;;;4879996;29;20136;-77
2023/02/10 08:59:06;;;;;;;30.30;18.52;;;2.10;99.90;;;;;;4880973;29;20057;-77
2023/02/10 09:01:32;;;;;;;39.83;26.13;;;2.30;99.90;;;;;;4880136;29;20365;-78
2023/02/10 09:03:59;;;;;;;39.35;24.58;;;2.30;99.90;;;;;;4881024;29;20136;-79
2023/02/10 09:06:26;;;;;;;51.22;29.13;;;2.40;99.90;;;;;;4895392;29;20127;-78
2023/02/10 09:08:53;;;;;;;37.45;23.13;;;2.40;99.90;;;;;;4894717;29;20045;-80
2023/02/10 09:11:19;;;;;;;42.00;23.45;;;2.50;99.90;;;;;;4895320;29;20045;-81
2023/02/10 09:13:46;;;;;;;35.65;24.00;;;2.60;99.90;;;;;;4880709;29;20045;-79
2023/02/10 09:16:14;;;;;;;31.67;22.55;;;2.70;99.90;;;;;;4894733;29;20060;-80
2023/02/10 09:18:41;;;;;;;40.35;22.92;;;2.80;99.90;;;;;;4895919;29;20177;-79
2023/02/10 09:21:07;;;;;;;30.08;21.35;;;2.80;99.90;;;;;;4894498;29;20045;-79
2023/02/10 09:23:34;;;;;;;34.83;21.25;;;2.90;99.90;;;;;;4881435;29;20052;-81
2023/02/10 09:28:46;;;;;;;25.58;16.20;;;3.20;99.90;;;;;;4880081;29;20064;-82
2023/02/10 09:31:13;;;;;;;21.55;14.02;;;3.30;99.90;;;;;;4880746;29;20048;-81
2023/02/10 09:33:40;;;;;;;20.40;12.65;;;3.50;99.90;;;;;;4881639;29;20041;-81
2023/02/10 09:36:07;;;;;;;17.75;10.93;;;3.70;99.90;;;;;;4895622;29;20472;-81
2023/02/10 09:38:35;;;;;;;17.48;9.80;;;3.90;99.90;;;;;;4895768;29;20384;-80
2023/02/10 09:41:01;;;;;;;24.17;11.93;;;4.10;99.90;;;;;;4879493;29;20076;-81
2023/02/10 09:43:28;;;;;;;18.35;10.95;;;4.30;99.90;;;;;;4880346;29;20476;-80
2023/02/10 09:45:56;;;;;;;13.65;10.05;;;4.50;99.90;;;;;;4895623;29;20075;-83
2023/02/10 09:48:23;;;;;;;15.00;8.57;;;4.70;99.90;;;;;;4895319;29;20068;-79
2023/02/10 09:50:50;;;;;;;14.95;10.40;;;4.80;99.90;;;;;;4895217;29;20377;-83
2023/02/10 09:53:17;;;;;;;14.30;8.68;;;5.00;99.90;;;;;;4895433;29;20045;-80
2023/02/10 09:58:49;;;;;;;;;;;;;;;;;;;;;
2023/02/10 10:01:43;;;;;;;13.68;8.18;;;5.50;99.90;;;;;;4875564;29;20069;-83
2023/02/10 10:04:09;;;;;;;12.77;8.25;;;5.70;99.90;;;;;;4861918;29;20045;-80
2023/02/10 10:10:16;;;;;;;13.13;7.35;;;6.10;99.90;;;;;;4864312;29;20059;-80
2023/02/10 10:12:42;;;;;;;15.82;7.18;;;6.50;99.90;;;;;;4879607;29;20057;-79
2023/02/10 10:17:54;;;;;;;9.05;5.00;;;6.80;99.90;;;;;;4880555;29;20150;-77
2023/02/10 10:20:21;;;;;;;13.80;6.63;;;7.00;99.90;;;;;;4889478;29;20104;-82
2023/02/10 10:22:48;;;;;;;8.50;5.13;;;7.30;99.90;;;;;;4898304;29;20044;-78
2023/02/10 10:28:02;;;;;;;13.13;5.63;;;7.50;99.90;;;;;;4898153;29;20486;-81
2023/02/10 10:30:29;;;;;;;8.25;4.72;;;7.70;99.90;;;;;;4887847;29;20045;-80
2023/02/10 10:32:56;;;;;;;13.40;5.07;;;7.80;99.90;;;;;;4896898;29;20082;-81
2023/02/10 10:35:22;;;;;;;9.48;4.68;;;7.90;99.90;;;;;;4882860;29;20056;-79
2023/02/10 10:37:49;;;;;;;12.13;5.05;;;8.00;99.90;;;;;;4882822;29;20052;-81
2023/02/10 10:40:16;;;;;;;8.98;5.38;;;8.20;99.90;;;;;;4898516;29;20041;-78
2023/02/10 10:42:42;;;;;;;12.73;5.80;;;8.40;99.90;;;;;;4883078;29;20120;-80
2023/02/10 10:47:54;;;;;;;9.52;5.03;;;8.80;99.90;;;;;;4897125;29;20057;-81
2023/02/10 10:50:46;;;;;;;;;;;;;;;;;;;;;
2023/02/10 10:54:02;;;;;;;18.33;8.00;;;9.20;99.90;;;;;;4876847;29;20368;-80
2023/02/10 10:56:33;;;;;;;12.68;5.82;;;9.40;99.90;;;;;;4879432;29;20038;-80
2023/02/10 10:58:59;;;;;;;8.40;5.18;;;9.50;99.90;;;;;;4897777;29;20056;-81
2023/02/10 11:01:26;;;;;;;11.75;6.05;;;9.70;99.90;;;;;;4883902;29;20368;-82
2023/02/10 11:03:53;;;;;;;9.32;5.82;;;9.80;99.90;;;;;;4893202;29;20481;-80
2023/02/10 11:09:08;;;;;;;13.50;6.30;;;10.20;99.90;;;;;;4882215;29;20049;-83
2023/02/10 11:11:35;;;;;;;12.70;6.30;;;10.10;99.90;;;;;;4883162;29;20052;-84
2023/02/10 11:14:04;;;;;;;;;;;10.10;99.90;;;;;;4882792;29;20105;-81
2023/02/10 11:16:33;;;;;;;9.65;5.50;;;10.00;99.90;;;;;;4881720;29;19934;-79
2023/02/10 11:19:00;;;;;;;11.18;5.50;;;10.10;99.90;;;;;;4893554;29;20524;-83
2023/02/10 11:21:26;;;;;;;9.10;4.68;;;10.10;99.90;;;;;;4879970;29;20159;-80
2023/02/10 11:23:53;;;;;;;15.85;5.70;;;10.10;99.90;;;;;;4882855;29;20041;-79
2023/02/10 11:26:20;;;;;;;12.52;3.70;;;10.10;99.90;;;;;;4881718;29;20061;-81
2023/02/10 11:28:46;;;;;;;11.52;3.33;;;10.10;99.90;;;;;;4896523;29;20045;-82
2023/02/10 11:31:13;;;;;;;8.77;3.28;;;10.10;99.90;;;;;;4882585;29;20067;-84
2023/02/10 11:33:40;;;;;;;15.38;4.47;;;10.30;99.90;;;;;;4897304;29;20051;-82
2023/02/10 11:36:08;;;;;;;13.35;3.45;;;10.30;99.90;;;;;;4880982;29;20045;-83
2023/02/10 11:38:34;;;;;;;10.32;3.92;;;10.40;99.90;;;;;;4883284;29;20059;-82
2023/02/10 11:41:01;;;;;;;10.88;4.13;;;10.50;99.90;;;;;;4882132;29;20063;-82
2023/02/10 11:43:28;;;;;;;11.77;4.03;;;10.50;99.90;;;;;;4878591;29;20049;-81
2023/02/10 11:45:55;;;;;;;8.35;4.45;;;10.60;99.90;;;;;;4885234;29;20052;-81
2023/02/10 11:48:23;;;;;;;11.23;4.40;;;10.60;99.90;;;;;;4882567;29;20056;-82
2023/02/10 11:50:52;;;;;;;11.30;4.68;;;10.60;99.90;;;;;;4883676;29;20392;-80
2023/02/10 11:53:18;;;;;;;10.15;4.28;;;10.60;99.90;;;;;;4883112;29;20047;-83
2023/02/10 11:55:45;;;;;;;11.30;4.93;;;10.40;99.90;;;;;;4897444;29;20060;-82
2023/02/10 12:01:11;;;;;;;7.65;3.58;;;9.80;99.90;;;;;;4860857;29;20354;-81
2023/02/10 12:03:38;;;;;;;14.27;3.45;;;9.50;99.90;;;;;;4897319;29;20064;-86
2023/02/10 12:06:08;;;;;;;11.00;3.80;;;9.50;99.90;;;;;;4897534;29;20061;-79
2023/02/10 12:08:35;;;;;;;8.30;3.28;;;9.60;99.90;;;;;;4882237;29;20049;-82
2023/02/10 12:11:02;;;;;;;14.05;3.70;;;9.50;99.90;;;;;;4896749;29;20045;-82
2023/02/10 12:13:28;;;;;;;7.70;3.35;;;9.20;99.90;;;;;;4882498;29;20055;-82
2023/02/10 12:18:26;;;;;;;11.05;3.25;;;9.00;99.90;;;;;;4896406;29;20057;-82
2023/02/10 12:20:53;;;;;;;12.15;3.58;;;8.90;99.90;;;;;;4895488;29;20082;-82
2023/02/10 12:23:22;;;;;;;14.23;3.67;;;8.80;99.90;;;;;;4896515;29;20057;-84
2023/02/10 12:28:36;;;;;;;12.20;3.30;;;8.90;99.90;;;;;;4895359;29;20189;-83
2023/02/10 12:31:03;;;;;;;10.90;3.35;;;9.00;99.90;;;;;;4895966;29;20109;-82
2023/02/10 12:33:42;;;;;;;15.10;4.20;;;9.10;99.90;;;;;;4881626;29;20124;-82
2023/02/10 12:38:57;;;;;;;15.70;3.72;;;9.10;99.90;;;;;;4895945;29;20441;-80
2023/02/10 12:41:36;;;;;;;11.68;4.90;;;9.10;99.90;;;;;;4873350;29;20122;-82
2023/02/10 12:44:10;;;;;;;12.43;3.85;;;9.10;99.90;;;;;;4873012;29;20141;-82
2023/02/10 12:46:37;;;;;;;13.95;4.65;;;9.20;99.90;;;;;;4881526;29;20041;-80
2023/02/10 12:49:04;;;;;;;14.05;4.70;;;9.20;99.90;;;;;;4879882;29;20131;-82
2023/02/10 12:51:31;;;;;;;13.57;4.10;;;9.10;99.90;;;;;;4887440;29;20052;-83
2023/02/10 12:53:57;;;;;;;14.68;5.05;;;9.20;99.90;;;;;;4880331;29;20055;-79
2023/02/10 12:56:25;;;;;;;12.10;4.55;;;9.10;99.90;;;;;;4880424;29;20051;-82
2023/02/10 12:58:52;;;;;;;15.80;4.90;;;9.10;99.90;;;;;;4881165;29;20055;-83
2023/02/10 13:01:18;;;;;;;14.13;4.85;;;9.10;99.90;;;;;;4880207;29;20049;-83
2023/02/10 13:03:45;;;;;;;14.55;5.22;;;9.20;99.90;;;;;;4879724;29;20143;-83
2023/02/10 13:08:57;;;;;;;10.70;4.25;;;9.20;99.90;;;;;;4879992;29;20053;-82
2023/02/10 13:11:24;;;;;;;14.77;5.10;;;9.20;99.90;;;;;;4880680;29;20052;-82
2023/02/10 13:13:51;;;;;;;10.48;4.38;;;9.20;99.90;;;;;;4880392;29;20045;-83
2023/02/10 13:19:06;;;;;;;13.73;4.25;;;9.30;99.90;;;;;;4880440;29;20059;-82
2023/02/10 13:21:33;;;;;;;14.32;4.82;;;9.40;99.90;;;;;;4880280;29;20060;-83
2023/02/10 13:24:00;;;;;;;9.98;4.25;;;9.40;99.90;;;;;;4895509;29;20041;-82
2023/02/10 13:26:29;;;;;;;12.77;4.57;;;9.50;99.90;;;;;;4880642;29;20123;-82
2023/02/10 13:28:55;;;;;;;10.68;4.93;;;9.40;99.90;;;;;;4878979;29;20049;-85
2023/02/10 13:31:22;;;;;;;11.43;4.75;;;9.30;99.90;;;;;;4881307;29;20409;-84
2023/02/10 13:33:49;;;;;;;18.83;5.40;;;9.30;99.90;;;;;;4880622;29;20378;-86
2023/02/10 13:36:17;;;;;;;13.23;4.05;;;9.30;99.90;;;;;;4879227;29;20049;-82
2023/02/10 13:38:43;;;;;;;12.80;4.40;;;9.40;99.90;;;;;;4880843;29;20487;-82
2023/02/10 13:43:55;;;;;;;13.70;4.28;;;9.50;99.90;;;;;;4880764;29;20053;-81
2023/02/10 13:46:23;;;;;;;12.27;4.82;;;9.50;99.90;;;;;;4880814;29;20045;-82
2023/02/10 13:48:50;;;;;;;14.43;5.22;;;9.50;99.90;;;;;;4878530;29;20073;-81
2023/02/10 13:51:16;;;;;;;11.00;3.60;;;9.60;99.90;;;;;;4880426;29;20460;-82
2023/02/10 13:53:43;;;;;;;12.38;4.65;;;9.60;99.90;;;;;;4880815;29;20049;-84
2023/02/10 13:59:03;;;;;;;10.35;3.25;;;9.70;99.90;;;;;;4895799;29;20049;-80